sensor_id;sensor_type;location;lat;lon;timestamp;P1;durP1;ratioP1;P2;durP2;ratioP2
59828;SDS011;45708;51.848;107.620;2022-12-29T00:00:34;28.27;;;24.03;;
59828;SDS011;45708;51.848;107.620;2022-12-29T00:05:35;13.60;;;9.40;;
59828;SDS011;45708;51.848;107.620;2022-12-29T00:10:36;21.83;;;15.57;;
59828;SDS011;45708;51.848;107.620;2022-12-29T00:15:36;75.07;;;29.87;;
59828;SDS011;45708;51.848;107.620;2022-12-29T00:20:37;95.67;;;47.03;;
59828;SDS011;45708;51.848;107.620;2022-12-29T00:25:38;161.67;;;60.97;;
59828;SDS011;45708;51.848;107.620;2022-12-29T00:30:39;114.90;;;49.07;;
59828;SDS011;45708;51.848;107.620;2022-12-29T00:35:50;173.70;;;65.87;;
59828;SDS011;45708;51.848;107.620;2022-12-29T00:40:54;194.93;;;74.03;;
59828;SDS011;45708;51.848;107.620;2022-12-29T00:46:13;91.07;;;37.87;;
59828;SDS011;45708;51.848;107.620;2022-12-29T00:51:14;90.57;;;44.23;;
59828;SDS011;45708;51.848;107.620;2022-12-29T00:56:15;121.97;;;53.13;;
59828;SDS011;45708;51.848;107.620;2022-12-29T01:01:16;80.23;;;38.13;;
59828;SDS011;45708;51.848;107.620;2022-12-29T01:06:17;26.23;;;13.20;;
59828;SDS011;45708;51.848;107.620;2022-12-29T01:11:18;35.70;;;26.60;;
59828;SDS011;45708;51.848;107.620;2022-12-29T01:16:18;99.93;;;45.33;;
59828;SDS011;45708;51.848;107.620;2022-12-29T01:21:19;42.27;;;20.03;;
59828;SDS011;45708;51.848;107.620;2022-12-29T01:31:39;22.47;;;20.47;;
59828;SDS011;45708;51.848;107.620;2022-12-29T01:36:40;28.83;;;17.23;;
59828;SDS011;45708;51.848;107.620;2022-12-29T01:41:41;53.07;;;29.33;;
59828;SDS011;45708;51.848;107.620;2022-12-29T01:52:29;45.07;;;26.27;;
59828;SDS011;45708;51.848;107.620;2022-12-29T01:57:36;31.77;;;19.20;;
59828;SDS011;45708;51.848;107.620;2022-12-29T02:02:45;145.63;;;58.77;;
59828;SDS011;45708;51.848;107.620;2022-12-29T02:07:52;145.97;;;55.53;;
59828;SDS011;45708;51.848;107.620;2022-12-29T02:12:54;147.77;;;61.47;;
59828;SDS011;45708;51.848;107.620;2022-12-29T02:18:02;155.17;;;62.00;;
59828;SDS011;45708;51.848;107.620;2022-12-29T02:34:17;109.03;;;42.53;;
59828;SDS011;45708;51.848;107.620;2022-12-29T02:39:38;46.67;;;25.30;;
59828;SDS011;45708;51.848;107.620;2022-12-29T02:44:55;59.37;;;23.33;;
59828;SDS011;45708;51.848;107.620;2022-12-29T02:50:26;126.63;;;49.33;;
59828;SDS011;45708;51.848;107.620;2022-12-29T02:55:31;81.70;;;37.03;;
59828;SDS011;45708;51.848;107.620;2022-12-29T03:00:32;161.33;;;69.93;;
59828;SDS011;45708;51.848;107.620;2022-12-29T03:10:53;22.53;;;12.70;;
59828;SDS011;45708;51.848;107.620;2022-12-29T03:21:15;79.43;;;29.90;;
59828;SDS011;45708;51.848;107.620;2022-12-29T03:26:26;132.83;;;40.70;;
59828;SDS011;45708;51.848;107.620;2022-12-29T03:31:27;123.23;;;49.90;;
59828;SDS011;45708;51.848;107.620;2022-12-29T03:36:35;58.10;;;30.93;;
59828;SDS011;45708;51.848;107.620;2022-12-29T03:41:43;45.07;;;20.00;;
59828;SDS011;45708;51.848;107.620;2022-12-29T03:46:45;117.03;;;46.10;;
59828;SDS011;45708;51.848;107.620;2022-12-29T03:52:05;88.50;;;40.80;;
59828;SDS011;45708;51.848;107.620;2022-12-29T04:28:09;10.47;;;8.57;;
59828;SDS011;45708;51.848;107.620;2022-12-29T04:33:10;25.93;;;10.53;;
59828;SDS011;45708;51.848;107.620;2022-12-29T04:38:11;8.43;;;7.63;;
59828;SDS011;45708;51.848;107.620;2022-12-29T04:43:12;3.37;;;3.03;;
59828;SDS011;45708;51.848;107.620;2022-12-29T04:48:14;52.33;;;25.23;;
59828;SDS011;45708;51.848;107.620;2022-12-29T04:53:16;9.80;;;7.37;;
59828;SDS011;45708;51.848;107.620;2022-12-29T04:58:18;29.60;;;16.37;;
59828;SDS011;45708;51.848;107.620;2022-12-29T05:08:39;17.47;;;8.53;;
59828;SDS011;45708;51.848;107.620;2022-12-29T05:13:40;14.20;;;8.63;;
59828;SDS011;45708;51.848;107.620;2022-12-29T05:29:19;2.67;;;1.33;;
59828;SDS011;45708;51.848;107.620;2022-12-29T05:34:20;6.13;;;5.67;;
59828;SDS011;45708;51.848;107.620;2022-12-29T05:39:21;10.90;;;8.40;;
59828;SDS011;45708;51.848;107.620;2022-12-29T05:44:21;26.63;;;13.50;;
59828;SDS011;45708;51.848;107.620;2022-12-29T05:49:22;21.30;;;10.77;;
59828;SDS011;45708;51.848;107.620;2022-12-29T05:54:23;36.83;;;19.90;;
59828;SDS011;45708;51.848;107.620;2022-12-29T05:59:24;43.40;;;22.73;;
59828;SDS011;45708;51.848;107.620;2022-12-29T06:04:25;17.27;;;11.20;;
59828;SDS011;45708;51.848;107.620;2022-12-29T06:09:26;9.20;;;7.40;;
59828;SDS011;45708;51.848;107.620;2022-12-29T06:14:26;16.60;;;10.07;;
59828;SDS011;45708;51.848;107.620;2022-12-29T06:19:27;14.87;;;7.50;;
59828;SDS011;45708;51.848;107.620;2022-12-29T06:24:28;18.63;;;13.90;;
59828;SDS011;45708;51.848;107.620;2022-12-29T06:29:29;8.63;;;7.73;;
59828;SDS011;45708;51.848;107.620;2022-12-29T06:34:30;18.73;;;8.70;;
59828;SDS011;45708;51.848;107.620;2022-12-29T06:39:30;12.53;;;5.50;;
59828;SDS011;45708;51.848;107.620;2022-12-29T06:44:31;5.50;;;5.03;;
59828;SDS011;45708;51.848;107.620;2022-12-29T06:49:32;9.27;;;7.50;;
59828;SDS011;45708;51.848;107.620;2022-12-29T06:54:33;5.63;;;4.83;;
59828;SDS011;45708;51.848;107.620;2022-12-29T06:59:34;5.37;;;4.93;;
59828;SDS011;45708;51.848;107.620;2022-12-29T07:04:35;12.73;;;9.93;;
59828;SDS011;45708;51.848;107.620;2022-12-29T07:09:35;19.63;;;12.80;;
59828;SDS011;45708;51.848;107.620;2022-12-29T07:14:36;10.33;;;6.47;;
59828;SDS011;45708;51.848;107.620;2022-12-29T07:19:37;30.83;;;18.13;;
59828;SDS011;45708;51.848;107.620;2022-12-29T07:24:38;24.40;;;12.13;;
59828;SDS011;45708;51.848;107.620;2022-12-29T07:29:39;13.27;;;9.40;;
59828;SDS011;45708;51.848;107.620;2022-12-29T07:34:40;5.57;;;3.83;;
59828;SDS011;45708;51.848;107.620;2022-12-29T07:39:41;9.70;;;8.80;;
59828;SDS011;45708;51.848;107.620;2022-12-29T07:44:42;8.90;;;6.73;;
59828;SDS011;45708;51.848;107.620;2022-12-29T07:49:42;16.83;;;8.73;;
59828;SDS011;45708;51.848;107.620;2022-12-29T07:54:43;7.33;;;6.03;;
59828;SDS011;45708;51.848;107.620;2022-12-29T07:59:44;9.93;;;8.93;;
59828;SDS011;45708;51.848;107.620;2022-12-29T08:04:45;12.27;;;9.83;;
59828;SDS011;45708;51.848;107.620;2022-12-29T08:10:05;10.10;;;8.43;;
59828;SDS011;45708;51.848;107.620;2022-12-29T08:15:07;8.53;;;7.83;;
59828;SDS011;45708;51.848;107.620;2022-12-29T08:20:09;3.63;;;3.33;;
59828;SDS011;45708;51.848;107.620;2022-12-29T08:25:10;7.90;;;7.50;;
59828;SDS011;45708;51.848;107.620;2022-12-29T08:30:11;8.27;;;5.23;;
59828;SDS011;45708;51.848;107.620;2022-12-29T08:35:12;11.00;;;9.87;;
59828;SDS011;45708;51.848;107.620;2022-12-29T08:40:13;5.77;;;3.97;;
59828;SDS011;45708;51.848;107.620;2022-12-29T08:45:14;4.73;;;3.57;;
59828;SDS011;45708;51.848;107.620;2022-12-29T08:55:34;12.10;;;10.77;;
59828;SDS011;45708;51.848;107.620;2022-12-29T09:00:35;5.50;;;5.10;;
59828;SDS011;45708;51.848;107.620;2022-12-29T09:05:36;1.67;;;1.67;;
59828;SDS011;45708;51.848;107.620;2022-12-29T09:10:37;8.63;;;5.13;;
59828;SDS011;45708;51.848;107.620;2022-12-29T09:15:38;16.37;;;8.67;;
59828;SDS011;45708;51.848;107.620;2022-12-29T09:20:39;13.90;;;6.73;;
59828;SDS011;45708;51.848;107.620;2022-12-29T09:25:40;12.70;;;10.40;;
59828;SDS011;45708;51.848;107.620;2022-12-29T09:30:41;11.17;;;10.07;;
59828;SDS011;45708;51.848;107.620;2022-12-29T09:35:48;7.73;;;7.10;;
59828;SDS011;45708;51.848;107.620;2022-12-29T09:40:56;9.80;;;5.53;;
59828;SDS011;45708;51.848;107.620;2022-12-29T09:51:10;11.27;;;8.07;;
59828;SDS011;45708;51.848;107.620;2022-12-29T09:56:18;16.75;;;9.18;;
59828;SDS011;45708;51.848;107.620;2022-12-29T10:01:32;16.60;;;15.05;;
59828;SDS011;45708;51.848;107.620;2022-12-29T10:06:59;9.77;;;8.87;;
59828;SDS011;45708;51.848;107.620;2022-12-29T10:12:29;17.70;;;10.37;;
59828;SDS011;45708;51.848;107.620;2022-12-29T10:17:36;11.97;;;10.80;;
59828;SDS011;45708;51.848;107.620;2022-12-29T10:27:50;8.57;;;7.80;;
59828;SDS011;45708;51.848;107.620;2022-12-29T10:51:20;18.23;;;8.77;;
59828;SDS011;45708;51.848;107.620;2022-12-29T10:56:40;12.47;;;9.77;;
59828;SDS011;45708;51.848;107.620;2022-12-29T11:02:13;8.93;;;7.17;;
59828;SDS011;45708;51.848;107.620;2022-12-29T11:07:11;8.30;;;5.60;;
59828;SDS011;45708;51.848;107.620;2022-12-29T11:12:20;9.63;;;8.97;;
59828;SDS011;45708;51.848;107.620;2022-12-29T11:17:21;12.57;;;9.87;;
59828;SDS011;45708;51.848;107.620;2022-12-29T11:22:23;50.77;;;14.07;;
59828;SDS011;45708;51.848;107.620;2022-12-29T11:27:28;26.37;;;22.50;;
59828;SDS011;45708;51.848;107.620;2022-12-29T11:32:29;25.37;;;21.27;;
59828;SDS011;45708;51.848;107.620;2022-12-29T11:37:31;26.10;;;20.53;;
59828;SDS011;45708;51.848;107.620;2022-12-29T11:42:40;21.33;;;13.50;;
59828;SDS011;45708;51.848;107.620;2022-12-29T11:47:56;19.03;;;8.83;;
59828;SDS011;45708;51.848;107.620;2022-12-29T11:53:41;18.10;;;8.87;;
59828;SDS011;45708;51.848;107.620;2022-12-29T11:58:46;21.57;;;18.27;;
59828;SDS011;45708;51.848;107.620;2022-12-29T12:03:59;8.43;;;5.60;;
59828;SDS011;45708;51.848;107.620;2022-12-29T12:09:14;36.83;;;23.87;;
59828;SDS011;45708;51.848;107.620;2022-12-29T12:14:24;17.70;;;15.63;;
59828;SDS011;45708;51.848;107.620;2022-12-29T12:25:04;23.77;;;15.40;;
59828;SDS011;45708;51.848;107.620;2022-12-29T12:30:23;11.33;;;10.53;;
59828;SDS011;45708;51.848;107.620;2022-12-29T12:56:28;43.93;;;30.07;;
59828;SDS011;45708;51.848;107.620;2022-12-29T13:02:17;49.30;;;30.83;;
59828;SDS011;45708;51.848;107.620;2022-12-29T13:13:25;25.77;;;18.33;;
59828;SDS011;45708;51.848;107.620;2022-12-29T13:18:52;9.90;;;8.77;;
59828;SDS011;45708;51.848;107.620;2022-12-29T13:24:02;10.20;;;9.13;;
59828;SDS011;45708;51.848;107.620;2022-12-29T13:40:18;5.83;;;5.30;;
59828;SDS011;45708;51.848;107.620;2022-12-29T13:45:24;8.20;;;7.53;;
59828;SDS011;45708;51.848;107.620;2022-12-29T13:50:29;24.97;;;22.50;;
59828;SDS011;45708;51.848;107.620;2022-12-29T13:55:37;8.80;;;7.87;;
59828;SDS011;45708;51.848;107.620;2022-12-29T14:00:49;7.90;;;6.17;;
59828;SDS011;45708;51.848;107.620;2022-12-29T14:11:37;11.20;;;10.27;;
59828;SDS011;45708;51.848;107.620;2022-12-29T14:16:40;4.27;;;2.43;;
59828;SDS011;45708;51.848;107.620;2022-12-29T14:21:41;13.13;;;12.07;;
59828;SDS011;45708;51.848;107.620;2022-12-29T14:26:52;12.67;;;4.43;;
59828;SDS011;45708;51.848;107.620;2022-12-29T14:31:53;9.13;;;8.33;;
59828;SDS011;45708;51.848;107.620;2022-12-29T14:36:55;3.87;;;3.77;;
59828;SDS011;45708;51.848;107.620;2022-12-29T14:47:11;10.37;;;8.97;;
59828;SDS011;45708;51.848;107.620;2022-12-29T14:57:42;15.80;;;11.53;;
59828;SDS011;45708;51.848;107.620;2022-12-29T15:02:50;4.57;;;4.23;;
59828;SDS011;45708;51.848;107.620;2022-12-29T15:08:03;3.63;;;3.43;;
59828;SDS011;45708;51.848;107.620;2022-12-29T15:13:09;6.70;;;6.30;;
59828;SDS011;45708;51.848;107.620;2022-12-29T15:18:23;6.80;;;6.40;;
59828;SDS011;45708;51.848;107.620;2022-12-29T15:28:25;6.23;;;3.73;;
59828;SDS011;45708;51.848;107.620;2022-12-29T15:33:28;8.77;;;6.37;;
59828;SDS011;45708;51.848;107.620;2022-12-29T15:38:29;13.27;;;9.53;;
59828;SDS011;45708;51.848;107.620;2022-12-29T15:48:49;4.23;;;3.43;;
59828;SDS011;45708;51.848;107.620;2022-12-29T15:53:50;1.37;;;1.37;;
59828;SDS011;45708;51.848;107.620;2022-12-29T15:58:52;5.50;;;5.07;;
59828;SDS011;45708;51.848;107.620;2022-12-29T16:03:53;8.13;;;1.97;;
59828;SDS011;45708;51.848;107.620;2022-12-29T16:14:22;18.33;;;9.03;;
59828;SDS011;45708;51.848;107.620;2022-12-29T16:19:37;9.63;;;8.37;;
59828;SDS011;45708;51.848;107.620;2022-12-29T16:24:40;27.07;;;16.77;;
59828;SDS011;45708;51.848;107.620;2022-12-29T16:29:41;5.13;;;3.57;;
59828;SDS011;45708;51.848;107.620;2022-12-29T16:34:43;36.20;;;23.20;;
59828;SDS011;45708;51.848;107.620;2022-12-29T16:39:44;10.77;;;6.27;;
59828;SDS011;45708;51.848;107.620;2022-12-29T16:44:44;4.23;;;3.83;;
59828;SDS011;45708;51.848;107.620;2022-12-29T16:49:49;7.10;;;3.87;;
59828;SDS011;45708;51.848;107.620;2022-12-29T16:54:54;7.93;;;3.50;;
59828;SDS011;45708;51.848;107.620;2022-12-29T17:00:02;27.77;;;14.23;;
59828;SDS011;45708;51.848;107.620;2022-12-29T17:05:07;28.15;;;25.35;;
59828;SDS011;45708;51.848;107.620;2022-12-29T17:10:12;77.43;;;37.57;;
59828;SDS011;45708;51.848;107.620;2022-12-29T17:15:26;53.57;;;34.70;;
59828;SDS011;45708;51.848;107.620;2022-12-29T17:20:29;41.63;;;31.17;;
59828;SDS011;45708;51.848;107.620;2022-12-29T17:25:32;20.50;;;17.27;;
59828;SDS011;45708;51.848;107.620;2022-12-29T17:30:36;47.17;;;29.70;;
59828;SDS011;45708;51.848;107.620;2022-12-29T17:35:39;21.70;;;17.80;;
59828;SDS011;45708;51.848;107.620;2022-12-29T17:40:40;48.97;;;27.23;;
59828;SDS011;45708;51.848;107.620;2022-12-29T17:45:41;16.47;;;12.07;;
59828;SDS011;45708;51.848;107.620;2022-12-29T17:50:44;47.70;;;22.93;;
59828;SDS011;45708;51.848;107.620;2022-12-29T17:55:47;9.03;;;8.27;;
59828;SDS011;45708;51.848;107.620;2022-12-29T18:00:48;7.93;;;7.13;;
59828;SDS011;45708;51.848;107.620;2022-12-29T18:05:52;5.37;;;4.60;;
59828;SDS011;45708;51.848;107.620;2022-12-29T18:10:53;6.03;;;5.53;;
59828;SDS011;45708;51.848;107.620;2022-12-29T18:15:55;10.13;;;5.27;;
59828;SDS011;45708;51.848;107.620;2022-12-29T18:20:58;2.20;;;2.13;;
59828;SDS011;45708;51.848;107.620;2022-12-29T18:26:00;3.20;;;3.00;;
59828;SDS011;45708;51.848;107.620;2022-12-29T18:31:08;17.50;;;5.33;;
59828;SDS011;45708;51.848;107.620;2022-12-29T18:36:16;6.73;;;4.37;;
59828;SDS011;45708;51.848;107.620;2022-12-29T18:41:19;17.70;;;4.27;;
59828;SDS011;45708;51.848;107.620;2022-12-29T18:46:22;9.30;;;5.40;;
59828;SDS011;45708;51.848;107.620;2022-12-29T18:51:23;11.47;;;10.40;;
59828;SDS011;45708;51.848;107.620;2022-12-29T18:56:25;0.57;;;0.57;;
59828;SDS011;45708;51.848;107.620;2022-12-29T19:01:26;14.73;;;11.60;;
59828;SDS011;45708;51.848;107.620;2022-12-29T19:06:27;24.57;;;17.00;;
59828;SDS011;45708;51.848;107.620;2022-12-29T19:11:28;4.37;;;3.53;;
59828;SDS011;45708;51.848;107.620;2022-12-29T19:16:28;13.93;;;12.63;;
59828;SDS011;45708;51.848;107.620;2022-12-29T19:21:29;23.80;;;9.83;;
59828;SDS011;45708;51.848;107.620;2022-12-29T19:26:31;14.70;;;9.10;;
59828;SDS011;45708;51.848;107.620;2022-12-29T19:31:33;14.90;;;10.50;;
59828;SDS011;45708;51.848;107.620;2022-12-29T19:36:36;17.50;;;7.27;;
59828;SDS011;45708;51.848;107.620;2022-12-29T19:41:37;3.40;;;2.20;;
59828;SDS011;45708;51.848;107.620;2022-12-29T19:46:38;4.10;;;2.53;;
59828;SDS011;45708;51.848;107.620;2022-12-29T19:51:39;10.77;;;5.60;;
59828;SDS011;45708;51.848;107.620;2022-12-29T19:56:40;15.63;;;7.80;;
59828;SDS011;45708;51.848;107.620;2022-12-29T20:01:40;15.20;;;5.53;;
59828;SDS011;45708;51.848;107.620;2022-12-29T20:06:41;3.37;;;3.17;;
59828;SDS011;45708;51.848;107.620;2022-12-29T20:11:42;14.23;;;5.40;;
59828;SDS011;45708;51.848;107.620;2022-12-29T20:16:43;9.77;;;5.23;;
59828;SDS011;45708;51.848;107.620;2022-12-29T20:21:44;7.07;;;5.13;;
59828;SDS011;45708;51.848;107.620;2022-12-29T20:26:45;4.00;;;2.40;;
59828;SDS011;45708;51.848;107.620;2022-12-29T20:31:46;3.27;;;3.17;;
59828;SDS011;45708;51.848;107.620;2022-12-29T20:36:48;1.83;;;1.77;;
59828;SDS011;45708;51.848;107.620;2022-12-29T20:41:49;0.77;;;0.77;;
59828;SDS011;45708;51.848;107.620;2022-12-29T20:46:50;7.27;;;3.27;;
59828;SDS011;45708;51.848;107.620;2022-12-29T20:51:51;3.67;;;2.70;;
59828;SDS011;45708;51.848;107.620;2022-12-29T20:56:51;1.43;;;1.43;;
59828;SDS011;45708;51.848;107.620;2022-12-29T21:01:52;4.03;;;2.23;;
59828;SDS011;45708;51.848;107.620;2022-12-29T21:06:53;6.07;;;5.00;;
59828;SDS011;45708;51.848;107.620;2022-12-29T21:11:54;7.17;;;4.37;;
59828;SDS011;45708;51.848;107.620;2022-12-29T21:16:55;8.47;;;4.23;;
59828;SDS011;45708;51.848;107.620;2022-12-29T21:21:56;3.90;;;3.57;;
59828;SDS011;45708;51.848;107.620;2022-12-29T21:26:57;1.60;;;1.47;;
59828;SDS011;45708;51.848;107.620;2022-12-29T21:31:57;0.80;;;0.80;;
59828;SDS011;45708;51.848;107.620;2022-12-29T21:36:58;1.77;;;1.77;;
59828;SDS011;45708;51.848;107.620;2022-12-29T21:41:59;8.20;;;5.57;;
59828;SDS011;45708;51.848;107.620;2022-12-29T21:47:00;20.07;;;6.80;;
59828;SDS011;45708;51.848;107.620;2022-12-29T21:52:01;2.90;;;2.70;;
59828;SDS011;45708;51.848;107.620;2022-12-29T21:57:02;22.03;;;6.93;;
59828;SDS011;45708;51.848;107.620;2022-12-29T22:02:03;3.17;;;2.87;;
59828;SDS011;45708;51.848;107.620;2022-12-29T22:07:12;16.80;;;7.17;;
59828;SDS011;45708;51.848;107.620;2022-12-29T22:12:13;16.30;;;7.13;;
59828;SDS011;45708;51.848;107.620;2022-12-29T22:17:14;5.93;;;3.67;;
59828;SDS011;45708;51.848;107.620;2022-12-29T22:22:15;7.33;;;6.73;;
59828;SDS011;45708;51.848;107.620;2022-12-29T22:27:15;7.67;;;5.33;;
59828;SDS011;45708;51.848;107.620;2022-12-29T22:32:16;26.27;;;8.50;;
59828;SDS011;45708;51.848;107.620;2022-12-29T22:37:17;3.47;;;3.23;;
59828;SDS011;45708;51.848;107.620;2022-12-29T22:42:18;2.47;;;2.27;;
59828;SDS011;45708;51.848;107.620;2022-12-29T22:47:19;5.87;;;4.20;;
59828;SDS011;45708;51.848;107.620;2022-12-29T22:52:20;5.23;;;5.03;;
59828;SDS011;45708;51.848;107.620;2022-12-29T22:57:21;2.73;;;2.53;;
59828;SDS011;45708;51.848;107.620;2022-12-29T23:02:22;5.03;;;4.60;;
59828;SDS011;45708;51.848;107.620;2022-12-29T23:07:23;5.50;;;5.13;;
59828;SDS011;45708;51.848;107.620;2022-12-29T23:12:24;10.60;;;7.00;;
59828;SDS011;45708;51.848;107.620;2022-12-29T23:17:27;6.13;;;4.67;;
59828;SDS011;45708;51.848;107.620;2022-12-29T23:22:28;4.17;;;3.77;;
59828;SDS011;45708;51.848;107.620;2022-12-29T23:27:29;5.10;;;2.87;;
59828;SDS011;45708;51.848;107.620;2022-12-29T23:32:30;12.63;;;3.97;;
59828;SDS011;45708;51.848;107.620;2022-12-29T23:37:31;1.03;;;1.03;;
59828;SDS011;45708;51.848;107.620;2022-12-29T23:42:31;5.10;;;4.27;;
59828;SDS011;45708;51.848;107.620;2022-12-29T23:47:35;4.20;;;2.40;;
59828;SDS011;45708;51.848;107.620;2022-12-29T23:52:36;13.77;;;7.50;;
59828;SDS011;45708;51.848;107.620;2022-12-29T23:57:37;7.20;;;4.53;;
